Krsko, Slovenia
Current Conditions -  °F | °C
As of 3:00 PM on Friday 28 Nov 2014 (Local Time) from LJCE Reporting Station
Haze Haze  
Wind Chill: 41°   Ceiling: 700
Heat Index: 41°   Visibility: 3mi
Dew Point: 37°   Wind: 3mph
Humidity: 87%   Direction: 70°ENE
Pressure: 30.03"   Gusts: NA
Location:  45.96°N, 15.49°E
Report Text: LJCE 281300Z 07003KT 040V100 5000 BR BKN007 OVC010 05/03 Q1017 RMK GRN
Loading
Personal Weather Stations






























Interactive Weather Map New forecast layout! Learn more

10-Day Weather Forecast

Advertisements
Track Severe Weather on mobile